sensor_id;sensor_type;location;lat;lon;timestamp;P1;durP1;ratioP1;P2;durP2;ratioP2
60718;SDS011;46567;51.660;5.824;2023-10-08T00:04:03;10.0;;;4.2;;
60718;SDS011;46567;51.660;5.824;2023-10-08T00:09:03;7.1;;;4.4;;
60718;SDS011;46567;51.660;5.824;2023-10-08T00:14:03;10.4;;;4.9;;
60718;SDS011;46567;51.660;5.824;2023-10-08T00:19:03;8.2;;;4.5;;
60718;SDS011;46567;51.660;5.824;2023-10-08T00:24:03;13.2;;;5.3;;
60718;SDS011;46567;51.660;5.824;2023-10-08T00:29:03;9.3;;;5.1;;
60718;SDS011;46567;51.660;5.824;2023-10-08T00:34:03;8.6;;;4.3;;
60718;SDS011;46567;51.660;5.824;2023-10-08T00:39:03;9.4;;;4.8;;
60718;SDS011;46567;51.660;5.824;2023-10-08T00:44:06;9.7;;;4.7;;
60718;SDS011;46567;51.660;5.824;2023-10-08T00:49:03;9.1;;;4.5;;
60718;SDS011;46567;51.660;5.824;2023-10-08T00:59:03;11.2;;;4.8;;
60718;SDS011;46567;51.660;5.824;2023-10-08T01:04:03;11.6;;;5.0;;
60718;SDS011;46567;51.660;5.824;2023-10-08T01:09:03;12.4;;;5.0;;
60718;SDS011;46567;51.660;5.824;2023-10-08T01:14:03;9.4;;;4.3;;
60718;SDS011;46567;51.660;5.824;2023-10-08T01:19:03;11.5;;;4.7;;
60718;SDS011;46567;51.660;5.824;2023-10-08T01:24:03;12.2;;;4.9;;
60718;SDS011;46567;51.660;5.824;2023-10-08T01:29:03;9.3;;;4.7;;
60718;SDS011;46567;51.660;5.824;2023-10-08T01:34:03;10.6;;;5.0;;
60718;SDS011;46567;51.660;5.824;2023-10-08T01:39:03;10.9;;;5.0;;
60718;SDS011;46567;51.660;5.824;2023-10-08T01:44:03;10.2;;;5.2;;
60718;SDS011;46567;51.660;5.824;2023-10-08T01:49:03;11.1;;;4.9;;
60718;SDS011;46567;51.660;5.824;2023-10-08T01:54:03;11.8;;;5.1;;
60718;SDS011;46567;51.660;5.824;2023-10-08T01:59:03;11.7;;;5.3;;
60718;SDS011;46567;51.660;5.824;2023-10-08T02:04:03;10.7;;;5.2;;
60718;SDS011;46567;51.660;5.824;2023-10-08T02:09:03;12.2;;;5.6;;
60718;SDS011;46567;51.660;5.824;2023-10-08T02:14:03;12.5;;;5.3;;
60718;SDS011;46567;51.660;5.824;2023-10-08T02:19:03;10.9;;;5.2;;
60718;SDS011;46567;51.660;5.824;2023-10-08T02:24:03;13.4;;;5.8;;
60718;SDS011;46567;51.660;5.824;2023-10-08T02:29:03;11.8;;;4.7;;
60718;SDS011;46567;51.660;5.824;2023-10-08T02:34:03;12.6;;;5.9;;
60718;SDS011;46567;51.660;5.824;2023-10-08T02:39:03;10.7;;;5.1;;
60718;SDS011;46567;51.660;5.824;2023-10-08T02:44:03;11.6;;;5.2;;
60718;SDS011;46567;51.660;5.824;2023-10-08T02:49:03;11.4;;;5.9;;
60718;SDS011;46567;51.660;5.824;2023-10-08T02:54:03;15.0;;;5.4;;
60718;SDS011;46567;51.660;5.824;2023-10-08T02:59:03;15.6;;;5.3;;
60718;SDS011;46567;51.660;5.824;2023-10-08T03:04:03;11.8;;;5.0;;
60718;SDS011;46567;51.660;5.824;2023-10-08T03:09:03;8.9;;;5.0;;
60718;SDS011;46567;51.660;5.824;2023-10-08T03:14:03;14.5;;;5.2;;
60718;SDS011;46567;51.660;5.824;2023-10-08T03:19:03;10.2;;;5.4;;
60718;SDS011;46567;51.660;5.824;2023-10-08T03:24:03;13.9;;;5.6;;
60718;SDS011;46567;51.660;5.824;2023-10-08T03:29:04;11.5;;;5.6;;
60718;SDS011;46567;51.660;5.824;2023-10-08T03:34:03;13.3;;;6.1;;
60718;SDS011;46567;51.660;5.824;2023-10-08T03:39:03;12.1;;;6.0;;
60718;SDS011;46567;51.660;5.824;2023-10-08T03:44:03;12.9;;;5.8;;
60718;SDS011;46567;51.660;5.824;2023-10-08T03:49:03;12.6;;;5.8;;
60718;SDS011;46567;51.660;5.824;2023-10-08T03:54:03;11.8;;;6.2;;
60718;SDS011;46567;51.660;5.824;2023-10-08T03:59:03;12.1;;;5.7;;
60718;SDS011;46567;51.660;5.824;2023-10-08T04:04:03;11.7;;;5.8;;
60718;SDS011;46567;51.660;5.824;2023-10-08T04:09:03;14.4;;;6.2;;
60718;SDS011;46567;51.660;5.824;2023-10-08T04:14:03;13.3;;;6.1;;
60718;SDS011;46567;51.660;5.824;2023-10-08T04:24:03;14.3;;;6.5;;
60718;SDS011;46567;51.660;5.824;2023-10-08T04:29:03;13.6;;;6.4;;
60718;SDS011;46567;51.660;5.824;2023-10-08T04:34:03;16.7;;;6.8;;
60718;SDS011;46567;51.660;5.824;2023-10-08T04:39:03;12.4;;;6.4;;
60718;SDS011;46567;51.660;5.824;2023-10-08T04:44:03;15.6;;;6.7;;
60718;SDS011;46567;51.660;5.824;2023-10-08T04:49:03;13.1;;;6.4;;
60718;SDS011;46567;51.660;5.824;2023-10-08T04:54:03;15.0;;;6.5;;
60718;SDS011;46567;51.660;5.824;2023-10-08T04:59:03;13.5;;;6.1;;
60718;SDS011;46567;51.660;5.824;2023-10-08T05:04:03;12.1;;;6.5;;
60718;SDS011;46567;51.660;5.824;2023-10-08T05:09:04;12.9;;;6.1;;
60718;SDS011;46567;51.660;5.824;2023-10-08T05:14:03;15.5;;;6.7;;
60718;SDS011;46567;51.660;5.824;2023-10-08T05:19:03;14.8;;;6.9;;
60718;SDS011;46567;51.660;5.824;2023-10-08T05:24:03;13.5;;;6.9;;
60718;SDS011;46567;51.660;5.824;2023-10-08T05:29:03;14.9;;;6.8;;
60718;SDS011;46567;51.660;5.824;2023-10-08T05:34:03;14.9;;;6.8;;
60718;SDS011;46567;51.660;5.824;2023-10-08T05:39:03;15.2;;;6.9;;
60718;SDS011;46567;51.660;5.824;2023-10-08T05:44:03;15.0;;;7.9;;
60718;SDS011;46567;51.660;5.824;2023-10-08T05:49:03;18.0;;;6.8;;
60718;SDS011;46567;51.660;5.824;2023-10-08T05:59:03;17.0;;;7.6;;
60718;SDS011;46567;51.660;5.824;2023-10-08T06:04:03;15.5;;;6.8;;
60718;SDS011;46567;51.660;5.824;2023-10-08T06:09:03;15.7;;;7.3;;
60718;SDS011;46567;51.660;5.824;2023-10-08T06:14:03;17.6;;;7.5;;
60718;SDS011;46567;51.660;5.824;2023-10-08T06:19:03;16.5;;;7.3;;
60718;SDS011;46567;51.660;5.824;2023-10-08T06:24:03;14.9;;;7.7;;
60718;SDS011;46567;51.660;5.824;2023-10-08T06:29:03;17.8;;;7.8;;
60718;SDS011;46567;51.660;5.824;2023-10-08T06:34:03;15.9;;;7.2;;
60718;SDS011;46567;51.660;5.824;2023-10-08T06:39:03;17.2;;;7.4;;
60718;SDS011;46567;51.660;5.824;2023-10-08T06:44:03;14.6;;;7.7;;
60718;SDS011;46567;51.660;5.824;2023-10-08T06:49:03;15.2;;;8.2;;
60718;SDS011;46567;51.660;5.824;2023-10-08T06:54:03;17.5;;;8.3;;
60718;SDS011;46567;51.660;5.824;2023-10-08T06:59:03;14.4;;;7.6;;
60718;SDS011;46567;51.660;5.824;2023-10-08T07:04:03;18.1;;;8.6;;
60718;SDS011;46567;51.660;5.824;2023-10-08T07:09:03;13.6;;;7.5;;
60718;SDS011;46567;51.660;5.824;2023-10-08T07:14:03;18.8;;;7.6;;
60718;SDS011;46567;51.660;5.824;2023-10-08T07:24:03;19.2;;;7.7;;
60718;SDS011;46567;51.660;5.824;2023-10-08T07:29:03;32.1;;;9.5;;
60718;SDS011;46567;51.660;5.824;2023-10-08T07:34:03;25.5;;;9.4;;
60718;SDS011;46567;51.660;5.824;2023-10-08T07:39:03;24.3;;;8.2;;
60718;SDS011;46567;51.660;5.824;2023-10-08T07:44:03;29.8;;;7.9;;
60718;SDS011;46567;51.660;5.824;2023-10-08T07:49:03;26.0;;;7.6;;
60718;SDS011;46567;51.660;5.824;2023-10-08T07:54:03;28.4;;;7.5;;
60718;SDS011;46567;51.660;5.824;2023-10-08T07:59:03;19.0;;;7.4;;
60718;SDS011;46567;51.660;5.824;2023-10-08T08:04:03;29.4;;;7.8;;
60718;SDS011;46567;51.660;5.824;2023-10-08T08:09:03;29.3;;;7.5;;
60718;SDS011;46567;51.660;5.824;2023-10-08T08:14:03;21.5;;;7.1;;
60718;SDS011;46567;51.660;5.824;2023-10-08T08:19:03;17.6;;;7.2;;
60718;SDS011;46567;51.660;5.824;2023-10-08T08:24:03;18.6;;;7.3;;
60718;SDS011;46567;51.660;5.824;2023-10-08T08:29:03;18.5;;;6.6;;
60718;SDS011;46567;51.660;5.824;2023-10-08T08:34:03;14.8;;;6.3;;
60718;SDS011;46567;51.660;5.824;2023-10-08T08:39:03;14.8;;;6.5;;
60718;SDS011;46567;51.660;5.824;2023-10-08T08:44:03;17.9;;;7.4;;
60718;SDS011;46567;51.660;5.824;2023-10-08T08:49:05;13.1;;;6.1;;
60718;SDS011;46567;51.660;5.824;2023-10-08T08:54:03;12.7;;;6.4;;
60718;SDS011;46567;51.660;5.824;2023-10-08T08:59:03;12.4;;;5.5;;
60718;SDS011;46567;51.660;5.824;2023-10-08T09:04:03;8.5;;;4.3;;
60718;SDS011;46567;51.660;5.824;2023-10-08T09:09:04;11.9;;;3.9;;
60718;SDS011;46567;51.660;5.824;2023-10-08T09:14:03;11.0;;;3.8;;
60718;SDS011;46567;51.660;5.824;2023-10-08T09:19:03;9.0;;;3.3;;
60718;SDS011;46567;51.660;5.824;2023-10-08T09:24:03;8.8;;;3.5;;
60718;SDS011;46567;51.660;5.824;2023-10-08T09:29:04;7.9;;;3.2;;
60718;SDS011;46567;51.660;5.824;2023-10-08T09:34:03;9.7;;;3.4;;
60718;SDS011;46567;51.660;5.824;2023-10-08T09:39:03;5.9;;;2.6;;
60718;SDS011;46567;51.660;5.824;2023-10-08T09:44:03;8.5;;;2.7;;
60718;SDS011;46567;51.660;5.824;2023-10-08T09:49:04;7.8;;;2.2;;
60718;SDS011;46567;51.660;5.824;2023-10-08T09:54:31;5.0;;;2.2;;
60718;SDS011;46567;51.660;5.824;2023-10-08T09:59:03;5.9;;;2.4;;
60718;SDS011;46567;51.660;5.824;2023-10-08T10:04:03;8.9;;;3.4;;
60718;SDS011;46567;51.660;5.824;2023-10-08T10:09:04;8.9;;;2.6;;
60718;SDS011;46567;51.660;5.824;2023-10-08T10:14:03;5.5;;;2.6;;
60718;SDS011;46567;51.660;5.824;2023-10-08T10:19:03;7.0;;;2.6;;
60718;SDS011;46567;51.660;5.824;2023-10-08T10:24:03;6.3;;;2.4;;
60718;SDS011;46567;51.660;5.824;2023-10-08T10:29:18;8.0;;;2.2;;
60718;SDS011;46567;51.660;5.824;2023-10-08T10:34:03;5.5;;;2.3;;
60718;SDS011;46567;51.660;5.824;2023-10-08T10:39:03;5.2;;;2.3;;
60718;SDS011;46567;51.660;5.824;2023-10-08T10:44:03;5.2;;;2.9;;
60718;SDS011;46567;51.660;5.824;2023-10-08T10:49:03;6.4;;;2.6;;
60718;SDS011;46567;51.660;5.824;2023-10-08T10:54:03;5.6;;;2.2;;
60718;SDS011;46567;51.660;5.824;2023-10-08T10:59:03;5.1;;;2.5;;
60718;SDS011;46567;51.660;5.824;2023-10-08T11:04:03;5.1;;;3.2;;
60718;SDS011;46567;51.660;5.824;2023-10-08T11:09:03;6.5;;;3.5;;
60718;SDS011;46567;51.660;5.824;2023-10-08T11:14:03;7.1;;;3.6;;
60718;SDS011;46567;51.660;5.824;2023-10-08T11:19:03;6.7;;;3.8;;
60718;SDS011;46567;51.660;5.824;2023-10-08T11:24:03;6.9;;;5.0;;
60718;SDS011;46567;51.660;5.824;2023-10-08T11:29:04;6.8;;;5.0;;
60718;SDS011;46567;51.660;5.824;2023-10-08T11:34:03;8.6;;;5.5;;
60718;SDS011;46567;51.660;5.824;2023-10-08T11:39:12;10.5;;;4.9;;
60718;SDS011;46567;51.660;5.824;2023-10-08T11:44:03;7.6;;;4.2;;
60718;SDS011;46567;51.660;5.824;2023-10-08T11:49:03;9.8;;;4.4;;
60718;SDS011;46567;51.660;5.824;2023-10-08T11:54:03;7.2;;;3.6;;
60718;SDS011;46567;51.660;5.824;2023-10-08T11:59:03;6.0;;;3.0;;
60718;SDS011;46567;51.660;5.824;2023-10-08T12:04:03;5.2;;;3.5;;
60718;SDS011;46567;51.660;5.824;2023-10-08T12:09:03;5.8;;;3.3;;
60718;SDS011;46567;51.660;5.824;2023-10-08T12:14:03;7.4;;;3.5;;
60718;SDS011;46567;51.660;5.824;2023-10-08T12:19:03;5.6;;;3.2;;
60718;SDS011;46567;51.660;5.824;2023-10-08T12:24:03;7.0;;;3.5;;
60718;SDS011;46567;51.660;5.824;2023-10-08T12:29:03;6.2;;;3.4;;
60718;SDS011;46567;51.660;5.824;2023-10-08T12:34:03;5.3;;;3.6;;
60718;SDS011;46567;51.660;5.824;2023-10-08T12:39:03;6.8;;;3.9;;
60718;SDS011;46567;51.660;5.824;2023-10-08T12:44:04;7.2;;;3.9;;
60718;SDS011;46567;51.660;5.824;2023-10-08T12:49:03;8.8;;;4.2;;
60718;SDS011;46567;51.660;5.824;2023-10-08T12:54:03;7.1;;;4.7;;
60718;SDS011;46567;51.660;5.824;2023-10-08T12:59:03;10.1;;;5.6;;
60718;SDS011;46567;51.660;5.824;2023-10-08T13:04:03;10.9;;;5.9;;
60718;SDS011;46567;51.660;5.824;2023-10-08T13:09:04;10.3;;;5.9;;
60718;SDS011;46567;51.660;5.824;2023-10-08T13:14:03;11.8;;;6.8;;
60718;SDS011;46567;51.660;5.824;2023-10-08T13:19:03;11.4;;;8.0;;
60718;SDS011;46567;51.660;5.824;2023-10-08T13:24:03;11.0;;;8.1;;
60718;SDS011;46567;51.660;5.824;2023-10-08T13:29:03;16.6;;;9.6;;
60718;SDS011;46567;51.660;5.824;2023-10-08T13:34:03;19.9;;;12.2;;
60718;SDS011;46567;51.660;5.824;2023-10-08T13:39:03;21.3;;;13.7;;
60718;SDS011;46567;51.660;5.824;2023-10-08T13:44:03;18.9;;;13.0;;
60718;SDS011;46567;51.660;5.824;2023-10-08T13:49:03;17.7;;;13.4;;
60718;SDS011;46567;51.660;5.824;2023-10-08T13:54:03;20.6;;;13.5;;
60718;SDS011;46567;51.660;5.824;2023-10-08T13:59:04;22.8;;;14.5;;
60718;SDS011;46567;51.660;5.824;2023-10-08T14:04:04;21.2;;;13.7;;
60718;SDS011;46567;51.660;5.824;2023-10-08T14:09:03;22.6;;;14.9;;
60718;SDS011;46567;51.660;5.824;2023-10-08T14:19:03;20.4;;;14.7;;
60718;SDS011;46567;51.660;5.824;2023-10-08T14:24:03;24.6;;;14.4;;
60718;SDS011;46567;51.660;5.824;2023-10-08T14:29:03;22.9;;;13.7;;
60718;SDS011;46567;51.660;5.824;2023-10-08T14:34:03;20.7;;;13.0;;
60718;SDS011;46567;51.660;5.824;2023-10-08T14:39:03;26.7;;;13.4;;
60718;SDS011;46567;51.660;5.824;2023-10-08T14:44:03;23.5;;;14.1;;
60718;SDS011;46567;51.660;5.824;2023-10-08T14:49:03;27.3;;;13.8;;
60718;SDS011;46567;51.660;5.824;2023-10-08T14:54:03;24.3;;;13.7;;
60718;SDS011;46567;51.660;5.824;2023-10-08T14:59:03;25.5;;;13.6;;
60718;SDS011;46567;51.660;5.824;2023-10-08T15:04:03;27.5;;;15.6;;
60718;SDS011;46567;51.660;5.824;2023-10-08T15:09:03;26.0;;;15.0;;
60718;SDS011;46567;51.660;5.824;2023-10-08T15:14:03;30.2;;;16.3;;
60718;SDS011;46567;51.660;5.824;2023-10-08T15:19:03;30.1;;;16.5;;
60718;SDS011;46567;51.660;5.824;2023-10-08T15:24:03;28.3;;;16.8;;
60718;SDS011;46567;51.660;5.824;2023-10-08T15:29:03;29.6;;;17.1;;
60718;SDS011;46567;51.660;5.824;2023-10-08T15:34:03;33.2;;;17.8;;
60718;SDS011;46567;51.660;5.824;2023-10-08T15:39:03;33.3;;;20.2;;
60718;SDS011;46567;51.660;5.824;2023-10-08T15:44:03;32.6;;;19.6;;
60718;SDS011;46567;51.660;5.824;2023-10-08T15:49:03;33.8;;;18.5;;
60718;SDS011;46567;51.660;5.824;2023-10-08T15:54:04;37.1;;;18.8;;
60718;SDS011;46567;51.660;5.824;2023-10-08T15:59:03;30.7;;;16.5;;
60718;SDS011;46567;51.660;5.824;2023-10-08T16:04:03;32.9;;;16.5;;
60718;SDS011;46567;51.660;5.824;2023-10-08T16:09:03;27.7;;;15.6;;
60718;SDS011;46567;51.660;5.824;2023-10-08T16:14:03;25.9;;;14.7;;
60718;SDS011;46567;51.660;5.824;2023-10-08T16:24:03;28.9;;;14.2;;
60718;SDS011;46567;51.660;5.824;2023-10-08T16:29:03;29.6;;;14.7;;
60718;SDS011;46567;51.660;5.824;2023-10-08T16:34:03;25.2;;;14.0;;
60718;SDS011;46567;51.660;5.824;2023-10-08T16:39:03;29.6;;;13.5;;
60718;SDS011;46567;51.660;5.824;2023-10-08T16:44:03;28.0;;;14.0;;
60718;SDS011;46567;51.660;5.824;2023-10-08T16:49:03;26.1;;;13.9;;
60718;SDS011;46567;51.660;5.824;2023-10-08T16:54:03;26.6;;;14.2;;
60718;SDS011;46567;51.660;5.824;2023-10-08T16:59:03;26.2;;;13.4;;
60718;SDS011;46567;51.660;5.824;2023-10-08T17:04:03;27.3;;;13.4;;
60718;SDS011;46567;51.660;5.824;2023-10-08T17:09:03;23.2;;;13.1;;
60718;SDS011;46567;51.660;5.824;2023-10-08T17:14:03;28.4;;;13.6;;
60718;SDS011;46567;51.660;5.824;2023-10-08T17:19:03;23.8;;;12.9;;
60718;SDS011;46567;51.660;5.824;2023-10-08T17:24:03;22.3;;;12.3;;
60718;SDS011;46567;51.660;5.824;2023-10-08T17:29:04;22.1;;;11.9;;
60718;SDS011;46567;51.660;5.824;2023-10-08T17:34:03;24.3;;;11.3;;
60718;SDS011;46567;51.660;5.824;2023-10-08T17:39:03;19.0;;;10.9;;
60718;SDS011;46567;51.660;5.824;2023-10-08T17:44:04;22.2;;;10.9;;
60718;SDS011;46567;51.660;5.824;2023-10-08T17:49:03;20.5;;;11.7;;
60718;SDS011;46567;51.660;5.824;2023-10-08T17:54:03;20.5;;;10.5;;
60718;SDS011;46567;51.660;5.824;2023-10-08T17:59:04;20.9;;;11.5;;
60718;SDS011;46567;51.660;5.824;2023-10-08T18:04:03;23.8;;;12.5;;
60718;SDS011;46567;51.660;5.824;2023-10-08T18:09:03;20.6;;;12.2;;
60718;SDS011;46567;51.660;5.824;2023-10-08T18:14:03;21.9;;;11.7;;
60718;SDS011;46567;51.660;5.824;2023-10-08T18:19:03;22.9;;;10.4;;
60718;SDS011;46567;51.660;5.824;2023-10-08T18:24:04;17.9;;;10.2;;
60718;SDS011;46567;51.660;5.824;2023-10-08T18:29:03;27.1;;;11.0;;
60718;SDS011;46567;51.660;5.824;2023-10-08T18:34:03;17.0;;;9.8;;
60718;SDS011;46567;51.660;5.824;2023-10-08T18:39:04;19.5;;;9.5;;
60718;SDS011;46567;51.660;5.824;2023-10-08T18:44:03;18.4;;;10.1;;
60718;SDS011;46567;51.660;5.824;2023-10-08T18:49:04;18.9;;;9.7;;
60718;SDS011;46567;51.660;5.824;2023-10-08T18:54:03;16.2;;;9.3;;
60718;SDS011;46567;51.660;5.824;2023-10-08T18:59:03;20.4;;;9.3;;
60718;SDS011;46567;51.660;5.824;2023-10-08T19:04:03;18.1;;;9.3;;
60718;SDS011;46567;51.660;5.824;2023-10-08T19:09:03;15.5;;;8.7;;
60718;SDS011;46567;51.660;5.824;2023-10-08T19:14:03;16.8;;;9.3;;
60718;SDS011;46567;51.660;5.824;2023-10-08T19:19:03;15.5;;;8.7;;
60718;SDS011;46567;51.660;5.824;2023-10-08T19:24:03;14.9;;;8.6;;
60718;SDS011;46567;51.660;5.824;2023-10-08T19:29:04;17.3;;;9.3;;
60718;SDS011;46567;51.660;5.824;2023-10-08T19:34:03;14.7;;;8.1;;
60718;SDS011;46567;51.660;5.824;2023-10-08T19:39:03;13.9;;;7.6;;
60718;SDS011;46567;51.660;5.824;2023-10-08T19:44:03;15.2;;;7.9;;
60718;SDS011;46567;51.660;5.824;2023-10-08T19:49:03;12.6;;;7.6;;
60718;SDS011;46567;51.660;5.824;2023-10-08T19:54:03;15.9;;;7.7;;
60718;SDS011;46567;51.660;5.824;2023-10-08T19:59:03;14.7;;;7.8;;
60718;SDS011;46567;51.660;5.824;2023-10-08T20:04:03;14.2;;;7.5;;
60718;SDS011;46567;51.660;5.824;2023-10-08T20:09:03;16.8;;;9.0;;
60718;SDS011;46567;51.660;5.824;2023-10-08T20:14:03;13.3;;;8.1;;
60718;SDS011;46567;51.660;5.824;2023-10-08T20:19:03;19.4;;;8.5;;
60718;SDS011;46567;51.660;5.824;2023-10-08T20:24:04;14.0;;;7.4;;
60718;SDS011;46567;51.660;5.824;2023-10-08T20:29:03;15.6;;;8.4;;
60718;SDS011;46567;51.660;5.824;2023-10-08T20:34:03;12.7;;;7.5;;
60718;SDS011;46567;51.660;5.824;2023-10-08T20:39:03;16.9;;;8.6;;
60718;SDS011;46567;51.660;5.824;2023-10-08T20:44:03;17.8;;;7.2;;
60718;SDS011;46567;51.660;5.824;2023-10-08T20:49:03;13.7;;;7.9;;
60718;SDS011;46567;51.660;5.824;2023-10-08T20:54:04;17.0;;;8.6;;
60718;SDS011;46567;51.660;5.824;2023-10-08T20:59:03;16.3;;;8.1;;
60718;SDS011;46567;51.660;5.824;2023-10-08T21:04:03;19.5;;;8.6;;
60718;SDS011;46567;51.660;5.824;2023-10-08T21:09:03;19.2;;;8.6;;
60718;SDS011;46567;51.660;5.824;2023-10-08T21:14:03;15.7;;;8.4;;
60718;SDS011;46567;51.660;5.824;2023-10-08T21:19:03;13.9;;;8.4;;
60718;SDS011;46567;51.660;5.824;2023-10-08T21:24:03;15.6;;;8.1;;
60718;SDS011;46567;51.660;5.824;2023-10-08T21:29:03;15.0;;;7.7;;
60718;SDS011;46567;51.660;5.824;2023-10-08T21:34:03;15.5;;;8.3;;
60718;SDS011;46567;51.660;5.824;2023-10-08T21:39:03;14.7;;;8.0;;
60718;SDS011;46567;51.660;5.824;2023-10-08T21:44:03;14.9;;;8.1;;
60718;SDS011;46567;51.660;5.824;2023-10-08T21:49:03;16.9;;;8.4;;
60718;SDS011;46567;51.660;5.824;2023-10-08T21:54:03;15.6;;;9.1;;
60718;SDS011;46567;51.660;5.824;2023-10-08T21:59:03;17.8;;;9.8;;
60718;SDS011;46567;51.660;5.824;2023-10-08T22:04:03;20.5;;;10.4;;
60718;SDS011;46567;51.660;5.824;2023-10-08T22:09:03;17.7;;;10.1;;
60718;SDS011;46567;51.660;5.824;2023-10-08T22:14:03;19.5;;;9.9;;
60718;SDS011;46567;51.660;5.824;2023-10-08T22:19:03;21.1;;;10.5;;
60718;SDS011;46567;51.660;5.824;2023-10-08T22:24:04;21.3;;;10.5;;
60718;SDS011;46567;51.660;5.824;2023-10-08T22:29:03;18.1;;;10.1;;
60718;SDS011;46567;51.660;5.824;2023-10-08T22:34:04;25.8;;;13.4;;
60718;SDS011;46567;51.660;5.824;2023-10-08T22:39:03;26.1;;;13.4;;
60718;SDS011;46567;51.660;5.824;2023-10-08T22:44:03;30.0;;;14.7;;
60718;SDS011;46567;51.660;5.824;2023-10-08T22:49:03;33.5;;;16.3;;
60718;SDS011;46567;51.660;5.824;2023-10-08T22:54:03;34.3;;;17.3;;
60718;SDS011;46567;51.660;5.824;2023-10-08T22:59:03;37.3;;;17.2;;
60718;SDS011;46567;51.660;5.824;2023-10-08T23:04:03;37.5;;;17.5;;
60718;SDS011;46567;51.660;5.824;2023-10-08T23:09:04;32.6;;;16.9;;
60718;SDS011;46567;51.660;5.824;2023-10-08T23:14:03;32.3;;;17.6;;
60718;SDS011;46567;51.660;5.824;2023-10-08T23:19:03;33.7;;;18.5;;
60718;SDS011;46567;51.660;5.824;2023-10-08T23:24:04;39.9;;;18.0;;
60718;SDS011;46567;51.660;5.824;2023-10-08T23:29:03;32.7;;;17.4;;
60718;SDS011;46567;51.660;5.824;2023-10-08T23:34:03;32.3;;;17.2;;
60718;SDS011;46567;51.660;5.824;2023-10-08T23:39:03;31.8;;;16.6;;
60718;SDS011;46567;51.660;5.824;2023-10-08T23:44:03;29.8;;;17.3;;
60718;SDS011;46567;51.660;5.824;2023-10-08T23:49:04;29.4;;;17.3;;
60718;SDS011;46567;51.660;5.824;2023-10-08T23:54:03;31.9;;;17.3;;
60718;SDS011;46567;51.660;5.824;2023-10-08T23:59:03;30.0;;;16.7;;
